Time,TemperatureF,DewpointF,PressureIn,WindDirection,WindDirectionDegrees,WindSpeedMPH,WindSpeedGustMPH,Humidity,HourlyPrecipIn,Conditions,Clouds,dailyrainin,SoftwareType,DateUTC
2013-03-14 00:58:00,47.0,46.0,30.13,NNE,25,0.0,0.0,95,0.00,,,0.00,weatherlink.com 1.10,2013-03-14 07:58:00,
2013-03-14 01:13:00,46.6,45.0,30.13,NNE,25,0.0,0.0,94,0.00,,,0.00,weatherlink.com 1.10,2013-03-14 08:13:00,
2013-03-14 01:28:00,46.4,45.0,30.13,NNE,25,0.0,0.0,95,0.00,,,0.00,weatherlink.com 1.10,2013-03-14 08:28:00,
2013-03-14 02:59:00,45.5,44.0,30.14,North,9,0.0,0.0,95,0.00,,,0.00,weatherlink.com 1.10,2013-03-14 09:59:00,
2013-03-14 03:14:00,45.6,44.0,30.13,North,9,0.0,0.0,95,0.00,,,0.00,weatherlink.com 1.10,2013-03-14 10:14:00,
2013-03-14 03:29:00,45.1,44.0,30.11,NNE,21,0.0,4.0,95,0.00,,,0.00,weatherlink.com 1.10,2013-03-14 10:29:00,
2013-03-14 03:44:00,45.3,44.0,30.11,NNE,23,2.0,6.0,95,0.00,,,0.00,weatherlink.com 1.10,2013-03-14 10:44:00,
2013-03-14 03:59:00,45.6,44.0,30.12,NNE,15,0.0,3.0,95,0.00,,,0.00,weatherlink.com 1.10,2013-03-14 10:59:00,
2013-03-14 04:15:00,45.4,44.0,30.12,NNE,15,0.0,0.0,95,0.00,,,0.00,weatherlink.com 1.10,2013-03-14 11:15:00,
2013-03-14 04:30:00,45.8,45.0,30.12,NNE,15,0.0,0.0,96,0.00,,,0.00,weatherlink.com 1.10,2013-03-14 11:30:00,
2013-03-14 04:45:00,44.5,43.0,30.11,NNE,15,0.0,1.0,95,0.00,,,0.00,weatherlink.com 1.10,2013-03-14 11:45:00,
2013-03-14 05:00:00,44.7,44.0,30.11,NNE,15,0.0,0.0,96,0.00,,,0.00,weatherlink.com 1.10,2013-03-14 12:00:00,
2013-03-14 05:14:00,44.7,44.0,30.12,NNE,15,0.0,0.0,96,0.00,,,0.00,weatherlink.com 1.10,2013-03-14 12:14:00,
2013-03-14 06:00:00,44.9,44.0,30.13,NNE,15,0.0,0.0,96,0.00,,,0.00,weatherlink.com 1.10,2013-03-14 13:00:00,
2013-03-14 06:29:00,44.8,44.0,30.13,NNE,15,0.0,0.0,96,0.00,,,0.00,weatherlink.com 1.10,2013-03-14 13:29:00,
2013-03-14 06:48:00,44.9,44.0,30.13,NNE,15,0.0,0.0,96,0.00,,,0.00,weatherlink.com 1.10,2013-03-14 13:48:00,
2013-03-14 07:00:00,45.1,44.0,30.13,NNE,15,0.0,0.0,96,0.00,,,0.00,weatherlink.com 1.10,2013-03-14 14:00:00,
2013-03-14 07:40:00,45.0,44.0,30.13,NNE,19,4.0,8.0,96,0.00,,,0.00,weatherlink.com 1.10,2013-03-14 14:40:00,
2013-03-14 07:45:00,45.1,44.0,30.13,NNE,21,0.0,6.0,96,0.00,,,0.00,weatherlink.com 1.10,2013-03-14 14:45:00,
2013-03-14 08:00:00,44.9,44.0,30.14,NNE,33,1.0,1.0,96,0.00,,,0.00,weatherlink.com 1.10,2013-03-14 15:00:00,
2013-03-14 08:15:00,44.9,44.0,30.15,NNE,24,0.0,0.0,96,0.00,,,0.00,weatherlink.com 1.10,2013-03-14 15:15:00,
2013-03-14 08:30:00,45.3,44.0,30.16,NW,304,0.0,1.0,96,0.00,,,0.00,weatherlink.com 1.10,2013-03-14 15:30:00,
2013-03-14 08:45:00,45.8,45.0,30.16,North,351,0.0,0.0,96,0.00,,,0.00,weatherlink.com 1.10,2013-03-14 15:45:00,
2013-03-14 09:00:00,46.1,45.0,30.17,NNE,24,0.0,2.0,96,0.00,,,0.00,weatherlink.com 1.10,2013-03-14 16:00:00,
2013-03-14 09:15:00,46.9,46.0,30.16,NNE,28,0.0,7.0,96,0.00,,,0.00,weatherlink.com 1.10,2013-03-14 16:15:00,
2013-03-14 09:30:00,47.2,46.0,30.16,NNE,25,2.0,6.0,95,0.00,,,0.00,weatherlink.com 1.10,2013-03-14 16:30:00,
2013-03-14 09:46:00,48.1,47.0,30.18,SSW,205,0.0,5.0,95,0.00,,,0.00,weatherlink.com 1.10,2013-03-14 16:46:00,
2013-03-14 10:00:00,47.8,46.0,30.19,South,184,3.0,5.0,94,0.00,,,0.00,weatherlink.com 1.10,2013-03-14 17:00:00,
2013-03-14 10:15:00,48.8,48.0,30.19,NE,36,0.0,0.0,96,0.00,,,0.00,weatherlink.com 1.10,2013-03-14 17:15:00,
2013-03-14 10:31:00,51.5,50.0,30.19,NNE,26,0.0,2.0,95,0.00,,,0.00,weatherlink.com 1.10,2013-03-14 17:31:00,
2013-03-14 10:46:00,52.9,50.0,30.19,North,5,0.0,4.0,89,0.00,,,0.00,weatherlink.com 1.10,2013-03-14 17:46:00,
2013-03-14 11:01:00,52.1,49.0,30.19,SSW,209,0.0,3.0,88,0.00,,,0.00,weatherlink.com 1.10,2013-03-14 18:01:00,
2013-03-14 11:16:00,52.9,50.0,30.20,SSW,193,0.0,5.0,89,0.00,,,0.00,weatherlink.com 1.10,2013-03-14 18:16:00,
2013-03-14 12:01:00,59.8,52.0,30.20,SW,220,4.0,6.0,74,0.00,,,0.00,weatherlink.com 1.10,2013-03-14 19:01:00,
2013-03-14 12:16:00,56.0,50.0,30.20,SSE,165,0.0,6.0,80,0.00,,,0.00,weatherlink.com 1.10,2013-03-14 19:16:00,
2013-03-14 12:31:00,57.9,52.0,30.20,SSE,155,0.0,5.0,80,0.00,,,0.00,weatherlink.com 1.10,2013-03-14 19:31:00,
2013-03-14 12:46:00,56.5,50.0,30.21,South,185,0.0,7.0,78,0.00,,,0.00,weatherlink.com 1.10,2013-03-14 19:46:00,
2013-03-14 13:16:00,54.2,50.0,30.20,SW,214,4.0,7.0,85,0.00,,,0.00,weatherlink.com 1.10,2013-03-14 20:16:00,
2013-03-14 13:31:00,55.6,51.0,30.19,SSE,148,0.0,9.0,84,0.00,,,0.00,weatherlink.com 1.10,2013-03-14 20:31:00,
2013-03-14 13:46:00,54.9,50.0,30.18,SW,215,3.0,7.0,83,0.00,,,0.00,weatherlink.com 1.10,2013-03-14 20:46:00,
2013-03-14 14:16:00,57.1,51.0,30.18,SSW,199,5.0,6.0,80,0.00,,,0.00,weatherlink.com 1.10,2013-03-14 21:16:00,
2013-03-14 14:31:00,56.5,51.0,30.17,SW,225,0.0,7.0,83,0.00,,,0.00,weatherlink.com 1.10,2013-03-14 21:31:00,
2013-03-14 14:46:00,57.1,51.0,30.18,South,175,2.0,8.0,80,0.00,,,0.00,weatherlink.com 1.10,2013-03-14 21:46:00,
2013-03-14 15:01:00,56.0,50.0,30.18,ESE,111,1.0,7.0,81,0.00,,,0.00,weatherlink.com 1.10,2013-03-14 22:01:00,
2013-03-14 15:31:00,55.8,51.0,30.18,SSW,201,6.0,10.0,85,0.00,,,0.00,weatherlink.com 1.10,2013-03-14 22:31:00,
2013-03-14 15:46:00,55.1,50.0,30.18,SSW,203,4.0,7.0,84,0.00,,,0.00,weatherlink.com 1.10,2013-03-14 22:46:00,
2013-03-14 16:16:00,55.6,51.0,30.18,SSW,198,3.0,5.0,84,0.00,,,0.00,weatherlink.com 1.10,2013-03-14 23:16:00,
2013-03-14 16:31:00,56.8,51.0,30.17,SSW,194,1.0,3.0,82,0.00,,,0.00,weatherlink.com 1.10,2013-03-14 23:31:00,
2013-03-14 16:46:00,56.2,52.0,30.16,NNE,22,0.0,3.0,84,0.00,,,0.00,weatherlink.com 1.10,2013-03-14 23:46:00,
2013-03-14 17:01:00,55.6,50.0,30.16,NNE,29,0.0,6.0,81,0.00,,,0.00,weatherlink.com 1.10,2013-03-15 00:01:00,
2013-03-14 17:16:00,54.4,50.0,30.14,NE,51,0.0,3.0,84,0.00,,,0.00,weatherlink.com 1.10,2013-03-15 00:16:00,
2013-03-14 17:31:00,55.1,51.0,30.15,NNE,25,0.0,5.0,86,0.00,,,0.00,weatherlink.com 1.10,2013-03-15 00:31:00,
2013-03-14 17:46:00,55.8,51.0,30.14,South,191,2.0,4.0,83,0.00,,,0.00,weatherlink.com 1.10,2013-03-15 00:46:00,
2013-03-14 18:01:00,54.2,50.0,30.15,ENE,59,0.0,2.0,85,0.00,,,0.00,weatherlink.com 1.10,2013-03-15 01:01:00,
2013-03-14 18:16:00,54.7,50.0,30.15,SW,217,1.0,4.0,84,0.00,,,0.00,weatherlink.com 1.10,2013-03-15 01:16:00,
2013-03-14 18:31:00,54.0,49.0,30.15,SSW,202,0.0,8.0,82,0.00,,,0.00,weatherlink.com 1.10,2013-03-15 01:31:00,
2013-03-14 18:46:00,54.5,49.0,30.15,SSW,204,1.0,3.0,83,0.00,,,0.00,weatherlink.com 1.10,2013-03-15 01:46:00,
2013-03-14 19:01:00,54.0,49.0,30.15,SSW,200,0.0,0.0,82,0.00,,,0.00,weatherlink.com 1.10,2013-03-15 02:01:00,
2013-03-14 19:16:00,53.6,49.0,30.14,NNE,23,0.0,2.0,84,0.00,,,0.00,weatherlink.com 1.10,2013-03-15 02:16:00,
2013-03-14 19:31:00,52.9,48.0,30.14,NNE,22,0.0,1.0,82,0.00,,,0.00,weatherlink.com 1.10,2013-03-15 02:31:00,
2013-03-14 19:46:00,51.3,47.0,30.16,NNE,26,0.0,4.0,86,0.00,,,0.00,weatherlink.com 1.10,2013-03-15 02:46:00,
2013-03-14 20:01:00,50.4,47.0,30.16,NNE,19,3.0,5.0,87,0.00,,,0.00,weatherlink.com 1.10,2013-03-15 03:01:00,
2013-03-14 20:16:00,49.9,47.0,30.16,NNE,30,0.0,2.0,88,0.00,,,0.00,weatherlink.com 1.10,2013-03-15 03:16:00,
2013-03-14 20:31:00,49.6,46.0,30.16,NNE,32,0.0,5.0,88,0.00,,,0.00,weatherlink.com 1.10,2013-03-15 03:31:00,
2013-03-14 20:46:00,49.4,46.0,30.16,NNE,20,0.0,1.0,88,0.00,,,0.00,weatherlink.com 1.10,2013-03-15 03:46:00,
2013-03-14 21:01:00,49.0,46.0,30.16,NNE,28,0.0,1.0,89,0.00,,,0.00,weatherlink.com 1.10,2013-03-15 04:01:00,
2013-03-14 21:16:00,48.4,45.0,30.16,North,360,0.0,1.0,89,0.00,,,0.00,weatherlink.com 1.10,2013-03-15 04:16:00,
2013-03-14 21:31:00,47.9,45.0,30.16,NNE,32,0.0,1.0,90,0.00,,,0.00,weatherlink.com 1.10,2013-03-15 04:31:00,
2013-03-14 21:46:00,47.8,45.0,30.17,NNE,32,0.0,1.0,91,0.00,,,0.00,weatherlink.com 1.10,2013-03-15 04:46:00,
2013-03-14 22:01:00,47.8,45.0,30.16,NNE,17,3.0,3.0,90,0.00,,,0.00,weatherlink.com 1.10,2013-03-15 05:01:00,
2013-03-14 22:16:00,47.8,45.0,30.15,NNE,16,2.0,3.0,89,0.00,,,0.00,weatherlink.com 1.10,2013-03-15 05:16:00,
2013-03-14 22:31:00,47.8,45.0,30.16,North,355,0.0,0.0,89,0.00,,,0.00,weatherlink.com 1.10,2013-03-15 05:31:00,
2013-03-14 22:46:00,48.0,44.0,30.17,NNE,22,0.0,3.0,87,0.00,,,0.00,weatherlink.com 1.10,2013-03-15 05:46:00,
2013-03-14 23:01:00,49.0,44.0,30.16,North,5,0.0,2.0,83,0.00,,,0.00,weatherlink.com 1.10,2013-03-15 06:01:00,
2013-03-14 23:16:00,48.0,44.0,30.16,North,5,0.0,3.0,85,0.00,,,0.00,weatherlink.com 1.10,2013-03-15 06:16:00,
2013-03-14 23:31:00,48.5,43.0,30.16,NNE,17,0.0,0.0,82,0.00,,,0.00,weatherlink.com 1.10,2013-03-15 06:31:00,
2013-03-14 23:46:00,49.1,44.0,30.16,NNE,30,0.0,3.0,82,0.00,,,0.00,weatherlink.com 1.10,2013-03-15 06:46:00,